<?xml version="1.0" encoding="UTF-8" standalone="no" ?><gpx xmlns="http://www.topografix.com/GPX/1/1" xmlns:gpxx="http://www.garmin.com/xmlschemas/GpxExtensions/v3" xmlns:gpxtpx="http://www.garmin.com/xmlschemas/TrackPointExtension/v1" creator="Foretrex 301" version="1.1" xmlns:xsi="http://www.w3.org/2001/XMLSchema-instance" xsi:schemaLocation="http://www.topografix.com/GPX/1/1 http://www.topografix.com/GPX/1/1/gpx.xsd http://www.garmin.com/xmlschemas/GpxExtensions/v3 http://www.garmin.com/xmlschemas/GpxExtensions/v3/GpxExtensionsv3.xsd"><metadata><link href="http://www.garmin.com"><text>Garmin International</text></link><time>2011-01-19T15:54:59Z</time></metadata><trk><name>ACTIVE LOG: 19 JAN 2011 09:53</name><trkseg><trkpt lat="51.799956" lon="-1.886410"><ele>-58.98</ele><time>2011-01-19T09:53:20Z</time></trkpt><trkpt lat="51.799912" lon="-1.886353"><ele>-52.25</ele><time>2011-01-19T09:53:53Z</time></trkpt><trkpt lat="51.799860" lon="-1.886373"><ele>-37.35</ele><time>2011-01-19T09:54:20Z</time></trkpt><trkpt lat="51.799815" lon="-1.886216"><ele>-29.18</ele><time>2011-01-19T09:55:29Z</time></trkpt><trkpt lat="51.799813" lon="-1.886178"><ele>-24.86</ele><time>2011-01-19T09:56:23Z</time></trkpt><trkpt lat="51.799545" lon="-1.885230"><ele>111.65</ele><time>2011-01-19T09:57:40Z</time></trkpt><trkpt lat="51.799500" lon="-1.885265"><ele>115.01</ele><time>2011-01-19T09:57:46Z</time></trkpt><trkpt lat="51.799382" lon="-1.885434"><ele>118.38</ele><time>2011-01-19T09:58:01Z</time></trkpt><trkpt lat="51.799294" lon="-1.885610"><ele>119.34</ele><time>2011-01-19T09:58:18Z</time></trkpt><trkpt lat="51.799290" lon="-1.885630"><ele>118.86</ele><time>2011-01-19T09:58:20Z</time></trkpt><trkpt lat="51.799378" lon="-1.885822"><ele>114.53</ele><time>2011-01-19T09:58:33Z</time></trkpt><trkpt lat="51.799411" lon="-1.885886"><ele>113.57</ele><time>2011-01-19T09:58:38Z</time></trkpt><trkpt lat="51.799552" lon="-1.886065"><ele>113.57</ele><time>2011-01-19T09:58:56Z</time></trkpt><trkpt lat="51.799620" lon="-1.886379"><ele>120.78</ele><time>2011-01-19T09:59:18Z</time></trkpt><trkpt lat="51.799744" lon="-1.886615"><ele>124.15</ele><time>2011-01-19T09:59:38Z</time></trkpt><trkpt lat="51.799805" lon="-1.886763"><ele>127.03</ele><time>2011-01-19T09:59:51Z</time></trkpt><trkpt lat="51.799944" lon="-1.886935"><ele>127.51</ele><time>2011-01-19T10:00:09Z</time></trkpt><trkpt lat="51.800041" lon="-1.887119"><ele>128.47</ele><time>2011-01-19T10:00:24Z</time></trkpt><trkpt lat="51.800084" lon="-1.887207"><ele>128.47</ele><time>2011-01-19T10:00:30Z</time></trkpt><trkpt lat="51.800204" lon="-1.887344"><ele>127.51</ele><time>2011-01-19T10:00:46Z</time></trkpt><trkpt lat="51.800406" lon="-1.887425"><ele>127.03</ele><time>2011-01-19T10:01:02Z</time></trkpt><trkpt lat="51.800660" lon="-1.887560"><ele>125.11</ele><time>2011-01-19T10:01:26Z</time></trkpt><trkpt lat="51.800868" lon="-1.887781"><ele>128.95</ele><time>2011-01-19T10:01:48Z</time></trkpt><trkpt lat="51.801044" lon="-1.888018"><ele>132.80</ele><time>2011-01-19T10:02:10Z</time></trkpt><trkpt lat="51.801099" lon="-1.888090"><ele>132.32</ele><time>2011-01-19T10:02:23Z</time></trkpt><trkpt lat="51.801355" lon="-1.888278"><ele>136.16</ele><time>2011-01-19T10:02:46Z</time></trkpt><trkpt lat="51.801535" lon="-1.888380"><ele>136.64</ele><time>2011-01-19T10:03:06Z</time></trkpt><trkpt lat="51.801741" lon="-1.888499"><ele>139.05</ele><time>2011-01-19T10:03:27Z</time></trkpt><trkpt lat="51.801950" lon="-1.888604"><ele>141.45</ele><time>2011-01-19T10:03:50Z</time></trkpt><trkpt lat="51.802120" lon="-1.888677"><ele>141.45</ele><time>2011-01-19T10:04:06Z</time></trkpt><trkpt lat="51.802386" lon="-1.888821"><ele>141.45</ele><time>2011-01-19T10:04:32Z</time></trkpt><trkpt lat="51.802588" lon="-1.888925"><ele>140.97</ele><time>2011-01-19T10:04:51Z</time></trkpt><trkpt lat="51.802853" lon="-1.889091"><ele>141.45</ele><time>2011-01-19T10:05:16Z</time></trkpt><trkpt lat="51.803057" lon="-1.889269"><ele>137.13</ele><time>2011-01-19T10:05:38Z</time></trkpt><trkpt lat="51.803280" lon="-1.889463"><ele>134.72</ele><time>2011-01-19T10:06:03Z</time></trkpt><trkpt lat="51.803577" lon="-1.889587"><ele>134.72</ele><time>2011-01-19T10:06:28Z</time></trkpt><trkpt lat="51.803782" lon="-1.889576"><ele>130.40</ele><time>2011-01-19T10:06:48Z</time></trkpt><trkpt lat="51.804060" lon="-1.889613"><ele>127.03</ele><time>2011-01-19T10:07:13Z</time></trkpt><trkpt lat="51.804273" lon="-1.889707"><ele>127.51</ele><time>2011-01-19T10:07:34Z</time></trkpt><trkpt lat="51.804477" lon="-1.889798"><ele>126.55</ele><time>2011-01-19T10:07:57Z</time></trkpt><trkpt lat="51.804704" lon="-1.889939"><ele>126.55</ele><time>2011-01-19T10:08:19Z</time></trkpt><trkpt lat="51.804979" lon="-1.890117"><ele>125.59</ele><time>2011-01-19T10:08:47Z</time></trkpt><trkpt lat="51.805191" lon="-1.890257"><ele>125.59</ele><time>2011-01-19T10:09:08Z</time></trkpt><trkpt lat="51.805303" lon="-1.890290"><ele>125.11</ele><time>2011-01-19T10:09:27Z</time></trkpt><trkpt lat="51.805353" lon="-1.890214"><ele>124.15</ele><time>2011-01-19T10:09:45Z</time></trkpt><trkpt lat="51.805426" lon="-1.890019"><ele>124.15</ele><time>2011-01-19T10:10:00Z</time></trkpt><trkpt lat="51.805509" lon="-1.889671"><ele>125.59</ele><time>2011-01-19T10:10:23Z</time></trkpt><trkpt lat="51.805625" lon="-1.889685"><ele>122.22</ele><time>2011-01-19T10:10:37Z</time></trkpt><trkpt lat="51.805828" lon="-1.889760"><ele>118.38</ele><time>2011-01-19T10:10:59Z</time></trkpt><trkpt lat="51.806036" lon="-1.889839"><ele>120.78</ele><time>2011-01-19T10:11:20Z</time></trkpt><trkpt lat="51.806260" lon="-1.889873"><ele>123.67</ele><time>2011-01-19T10:11:40Z</time></trkpt><trkpt lat="51.806452" lon="-1.889933"><ele>127.03</ele><time>2011-01-19T10:11:59Z</time></trkpt><trkpt lat="51.806530" lon="-1.889934"><ele>127.03</ele><time>2011-01-19T10:12:15Z</time></trkpt><trkpt lat="51.806539" lon="-1.889941"><ele>127.03</ele><time>2011-01-19T10:12:18Z</time></trkpt><trkpt lat="51.806674" lon="-1.889873"><ele>126.55</ele><time>2011-01-19T10:12:32Z</time></trkpt><trkpt lat="51.806791" lon="-1.889800"><ele>126.55</ele><time>2011-01-19T10:12:47Z</time></trkpt><trkpt lat="51.806985" lon="-1.889643"><ele>126.55</ele><time>2011-01-19T10:13:09Z</time></trkpt><trkpt lat="51.807165" lon="-1.889500"><ele>126.07</ele><time>2011-01-19T10:13:28Z</time></trkpt><trkpt lat="51.807266" lon="-1.889418"><ele>126.55</ele><time>2011-01-19T10:13:43Z</time></trkpt><trkpt lat="51.807262" lon="-1.889404"><ele>127.03</ele><time>2011-01-19T10:13:49Z</time></trkpt><trkpt lat="51.807275" lon="-1.889424"><ele>127.03</ele><time>2011-01-19T10:13:53Z</time></trkpt><trkpt lat="51.807409" lon="-1.889545"><ele>127.51</ele><time>2011-01-19T10:14:09Z</time></trkpt><trkpt lat="51.807439" lon="-1.889548"><ele>127.51</ele><time>2011-01-19T10:14:20Z</time></trkpt><trkpt lat="51.807468" lon="-1.889447"><ele>127.03</ele><time>2011-01-19T10:14:34Z</time></trkpt><trkpt lat="51.807502" lon="-1.889398"><ele>127.03</ele><time>2011-01-19T10:14:57Z</time></trkpt><trkpt lat="51.807535" lon="-1.889392"><ele>127.03</ele><time>2011-01-19T10:15:09Z</time></trkpt><trkpt lat="51.807535" lon="-1.889394"><ele>125.59</ele><time>2011-01-19T10:15:25Z</time></trkpt><trkpt lat="51.807656" lon="-1.889348"><ele>124.63</ele><time>2011-01-19T10:15:44Z</time></trkpt><trkpt lat="51.807678" lon="-1.889353"><ele>124.63</ele><time>2011-01-19T10:15:47Z</time></trkpt><trkpt lat="51.807846" lon="-1.889211"><ele>122.71</ele><time>2011-01-19T10:16:05Z</time></trkpt><trkpt lat="51.808029" lon="-1.889003"><ele>123.67</ele><time>2011-01-19T10:16:25Z</time></trkpt><trkpt lat="51.808150" lon="-1.888848"><ele>124.63</ele><time>2011-01-19T10:16:41Z</time></trkpt><trkpt lat="51.808284" lon="-1.888559"><ele>125.59</ele><time>2011-01-19T10:17:02Z</time></trkpt><trkpt lat="51.808404" lon="-1.888317"><ele>125.59</ele><time>2011-01-19T10:17:23Z</time></trkpt><trkpt lat="51.808516" lon="-1.888082"><ele>127.03</ele><time>2011-01-19T10:17:43Z</time></trkpt><trkpt lat="51.808581" lon="-1.887865"><ele>127.99</ele><time>2011-01-19T10:17:59Z</time></trkpt><trkpt lat="51.808659" lon="-1.887657"><ele>128.47</ele><time>2011-01-19T10:18:16Z</time></trkpt><trkpt lat="51.808673" lon="-1.887591"><ele>128.47</ele><time>2011-01-19T10:18:20Z</time></trkpt><trkpt lat="51.808721" lon="-1.887193"><ele>127.03</ele><time>2011-01-19T10:18:44Z</time></trkpt><trkpt lat="51.808772" lon="-1.886872"><ele>125.11</ele><time>2011-01-19T10:19:05Z</time></trkpt><trkpt lat="51.808910" lon="-1.886683"><ele>125.59</ele><time>2011-01-19T10:19:25Z</time></trkpt><trkpt lat="51.809076" lon="-1.886418"><ele>125.59</ele><time>2011-01-19T10:19:47Z</time></trkpt><trkpt lat="51.809251" lon="-1.886141"><ele>124.63</ele><time>2011-01-19T10:20:10Z</time></trkpt><trkpt lat="51.809493" lon="-1.885934"><ele>126.07</ele><time>2011-01-19T10:20:35Z</time></trkpt><trkpt lat="51.809582" lon="-1.885815"><ele>127.03</ele><time>2011-01-19T10:20:47Z</time></trkpt><trkpt lat="51.809627" lon="-1.885792"><ele>127.03</ele><time>2011-01-19T10:20:53Z</time></trkpt><trkpt lat="51.809711" lon="-1.885748"><ele>127.51</ele><time>2011-01-19T10:21:00Z</time></trkpt><trkpt lat="51.809729" lon="-1.885731"><ele>127.51</ele><time>2011-01-19T10:21:02Z</time></trkpt><trkpt lat="51.809942" lon="-1.885580"><ele>127.99</ele><time>2011-01-19T10:21:22Z</time></trkpt><trkpt lat="51.810116" lon="-1.885467"><ele>127.99</ele><time>2011-01-19T10:21:39Z</time></trkpt><trkpt lat="51.810259" lon="-1.885340"><ele>128.47</ele><time>2011-01-19T10:21:53Z</time></trkpt><trkpt lat="51.810455" lon="-1.885201"><ele>128.47</ele><time>2011-01-19T10:22:11Z</time></trkpt><trkpt lat="51.810467" lon="-1.885200"><ele>127.99</ele><time>2011-01-19T10:22:12Z</time></trkpt><trkpt lat="51.810533" lon="-1.885135"><ele>128.95</ele><time>2011-01-19T10:22:20Z</time></trkpt><trkpt lat="51.810696" lon="-1.884981"><ele>128.47</ele><time>2011-01-19T10:22:37Z</time></trkpt><trkpt lat="51.810873" lon="-1.884842"><ele>128.95</ele><time>2011-01-19T10:22:53Z</time></trkpt><trkpt lat="51.811068" lon="-1.884715"><ele>128.95</ele><time>2011-01-19T10:23:12Z</time></trkpt><trkpt lat="51.811269" lon="-1.884569"><ele>128.47</ele><time>2011-01-19T10:23:33Z</time></trkpt><trkpt lat="51.811460" lon="-1.884442"><ele>129.92</ele><time>2011-01-19T10:23:51Z</time></trkpt><trkpt lat="51.811586" lon="-1.884321"><ele>130.40</ele><time>2011-01-19T10:24:06Z</time></trkpt><trkpt lat="51.811599" lon="-1.884308"><ele>130.88</ele><time>2011-01-19T10:24:08Z</time></trkpt><trkpt lat="51.811795" lon="-1.884159"><ele>130.88</ele><time>2011-01-19T10:24:27Z</time></trkpt><trkpt lat="51.811844" lon="-1.884114"><ele>131.36</ele><time>2011-01-19T10:24:33Z</time></trkpt><trkpt lat="51.812010" lon="-1.884002"><ele>129.92</ele><time>2011-01-19T10:24:52Z</time></trkpt><trkpt lat="51.812133" lon="-1.883916"><ele>128.47</ele><time>2011-01-19T10:25:10Z</time></trkpt><trkpt lat="51.812130" lon="-1.883916"><ele>128.47</ele><time>2011-01-19T10:25:18Z</time></trkpt><trkpt lat="51.812177" lon="-1.883877"><ele>128.47</ele><time>2011-01-19T10:25:29Z</time></trkpt><trkpt lat="51.812205" lon="-1.883886"><ele>128.47</ele><time>2011-01-19T10:25:45Z</time></trkpt><trkpt lat="51.812226" lon="-1.883882"><ele>128.47</ele><time>2011-01-19T10:26:07Z</time></trkpt><trkpt lat="51.812291" lon="-1.883851"><ele>127.99</ele><time>2011-01-19T10:26:28Z</time></trkpt><trkpt lat="51.812420" lon="-1.883826"><ele>127.99</ele><time>2011-01-19T10:26:41Z</time></trkpt><trkpt lat="51.812565" lon="-1.883718"><ele>130.40</ele><time>2011-01-19T10:26:56Z</time></trkpt><trkpt lat="51.812727" lon="-1.883621"><ele>130.40</ele><time>2011-01-19T10:27:13Z</time></trkpt><trkpt lat="51.812909" lon="-1.883575"><ele>130.88</ele><time>2011-01-19T10:27:30Z</time></trkpt><trkpt lat="51.813108" lon="-1.883461"><ele>132.32</ele><time>2011-01-19T10:27:49Z</time></trkpt><trkpt lat="51.813326" lon="-1.883348"><ele>133.28</ele><time>2011-01-19T10:28:09Z</time></trkpt><trkpt lat="51.813346" lon="-1.883332"><ele>133.76</ele><time>2011-01-19T10:28:11Z</time></trkpt><trkpt lat="51.813388" lon="-1.883225"><ele>135.20</ele><time>2011-01-19T10:28:18Z</time></trkpt><trkpt lat="51.813400" lon="-1.883213"><ele>135.68</ele><time>2011-01-19T10:28:20Z</time></trkpt><trkpt lat="51.813594" lon="-1.883150"><ele>135.20</ele><time>2011-01-19T10:28:38Z</time></trkpt><trkpt lat="51.813738" lon="-1.883045"><ele>135.68</ele><time>2011-01-19T10:28:57Z</time></trkpt><trkpt lat="51.813863" lon="-1.883015"><ele>134.24</ele><time>2011-01-19T10:29:12Z</time></trkpt><trkpt lat="51.814095" lon="-1.883008"><ele>136.16</ele><time>2011-01-19T10:29:31Z</time></trkpt><trkpt lat="51.814256" lon="-1.882965"><ele>136.64</ele><time>2011-01-19T10:29:47Z</time></trkpt><trkpt lat="51.814259" lon="-1.882920"><ele>139.53</ele><time>2011-01-19T10:30:01Z</time></trkpt><trkpt lat="51.814266" lon="-1.882906"><ele>139.53</ele><time>2011-01-19T10:30:02Z</time></trkpt><trkpt lat="51.814351" lon="-1.882869"><ele>139.53</ele><time>2011-01-19T10:30:21Z</time></trkpt><trkpt lat="51.814419" lon="-1.882878"><ele>138.57</ele><time>2011-01-19T10:30:35Z</time></trkpt><trkpt lat="51.814443" lon="-1.882932"><ele>136.16</ele><time>2011-01-19T10:30:49Z</time></trkpt><trkpt lat="51.814452" lon="-1.882960"><ele>137.13</ele><time>2011-01-19T10:30:59Z</time></trkpt><trkpt lat="51.814554" lon="-1.883142"><ele>137.13</ele><time>2011-01-19T10:31:12Z</time></trkpt><trkpt lat="51.814600" lon="-1.883208"><ele>136.16</ele><time>2011-01-19T10:31:17Z</time></trkpt><trkpt lat="51.814647" lon="-1.883230"><ele>134.72</ele><time>2011-01-19T10:31:22Z</time></trkpt><trkpt lat="51.814793" lon="-1.883081"><ele>131.84</ele><time>2011-01-19T10:31:37Z</time></trkpt><trkpt lat="51.814964" lon="-1.882904"><ele>132.32</ele><time>2011-01-19T10:31:54Z</time></trkpt><trkpt lat="51.814974" lon="-1.882893"><ele>132.32</ele><time>2011-01-19T10:31:55Z</time></trkpt><trkpt lat="51.815137" lon="-1.882752"><ele>135.68</ele><time>2011-01-19T10:32:11Z</time></trkpt><trkpt lat="51.815209" lon="-1.882694"><ele>133.76</ele><time>2011-01-19T10:32:26Z</time></trkpt><trkpt lat="51.815260" lon="-1.882628"><ele>133.28</ele><time>2011-01-19T10:32:38Z</time></trkpt><trkpt lat="51.815333" lon="-1.882534"><ele>133.76</ele><time>2011-01-19T10:32:50Z</time></trkpt><trkpt lat="51.815352" lon="-1.882513"><ele>134.24</ele><time>2011-01-19T10:32:52Z</time></trkpt><trkpt lat="51.815415" lon="-1.882491"><ele>135.68</ele><time>2011-01-19T10:33:08Z</time></trkpt><trkpt lat="51.815423" lon="-1.882503"><ele>134.72</ele><time>2011-01-19T10:33:27Z</time></trkpt><trkpt lat="51.815401" lon="-1.882488"><ele>133.28</ele><time>2011-01-19T10:33:52Z</time></trkpt><trkpt lat="51.815389" lon="-1.882484"><ele>132.32</ele><time>2011-01-19T10:34:16Z</time></trkpt><trkpt lat="51.815395" lon="-1.882513"><ele>131.84</ele><time>2011-01-19T10:34:44Z</time></trkpt><trkpt lat="51.815420" lon="-1.882643"><ele>127.51</ele><time>2011-01-19T10:34:59Z</time></trkpt><trkpt lat="51.815552" lon="-1.882792"><ele>128.47</ele><time>2011-01-19T10:35:15Z</time></trkpt><trkpt lat="51.815732" lon="-1.882947"><ele>129.92</ele><time>2011-01-19T10:35:33Z</time></trkpt><trkpt lat="51.815868" lon="-1.883061"><ele>130.40</ele><time>2011-01-19T10:35:50Z</time></trkpt><trkpt lat="51.815986" lon="-1.883177"><ele>130.88</ele><time>2011-01-19T10:36:04Z</time></trkpt><trkpt lat="51.816117" lon="-1.883306"><ele>131.84</ele><time>2011-01-19T10:36:20Z</time></trkpt><trkpt lat="51.816257" lon="-1.883416"><ele>132.32</ele><time>2011-01-19T10:36:36Z</time></trkpt><trkpt lat="51.816445" lon="-1.883524"><ele>132.32</ele><time>2011-01-19T10:36:55Z</time></trkpt><trkpt lat="51.816588" lon="-1.883614"><ele>131.84</ele><time>2011-01-19T10:37:13Z</time></trkpt><trkpt lat="51.816731" lon="-1.883713"><ele>131.84</ele><time>2011-01-19T10:37:29Z</time></trkpt><trkpt lat="51.816850" lon="-1.883805"><ele>131.36</ele><time>2011-01-19T10:37:43Z</time></trkpt><trkpt lat="51.816985" lon="-1.883881"><ele>132.32</ele><time>2011-01-19T10:37:59Z</time></trkpt><trkpt lat="51.817057" lon="-1.883937"><ele>132.32</ele><time>2011-01-19T10:38:07Z</time></trkpt><trkpt lat="51.817102" lon="-1.883977"><ele>132.32</ele><time>2011-01-19T10:38:12Z</time></trkpt><trkpt lat="51.817170" lon="-1.884061"><ele>132.32</ele><time>2011-01-19T10:38:31Z</time></trkpt><trkpt lat="51.817220" lon="-1.884075"><ele>133.76</ele><time>2011-01-19T10:38:42Z</time></trkpt><trkpt lat="51.817322" lon="-1.883991"><ele>132.80</ele><time>2011-01-19T10:39:00Z</time></trkpt><trkpt lat="51.817311" lon="-1.883915"><ele>133.28</ele><time>2011-01-19T10:39:14Z</time></trkpt><trkpt lat="51.817302" lon="-1.883922"><ele>134.24</ele><time>2011-01-19T10:39:26Z</time></trkpt><trkpt lat="51.817297" lon="-1.883935"><ele>134.24</ele><time>2011-01-19T10:39:28Z</time></trkpt><trkpt lat="51.817224" lon="-1.884153"><ele>131.84</ele><time>2011-01-19T10:39:46Z</time></trkpt><trkpt lat="51.817245" lon="-1.884165"><ele>131.36</ele><time>2011-01-19T10:39:58Z</time></trkpt><trkpt lat="51.817225" lon="-1.884383"><ele>131.84</ele><time>2011-01-19T10:40:12Z</time></trkpt><trkpt lat="51.817139" lon="-1.884748"><ele>132.80</ele><time>2011-01-19T10:40:31Z</time></trkpt><trkpt lat="51.817020" lon="-1.885181"><ele>133.28</ele><time>2011-01-19T10:40:54Z</time></trkpt><trkpt lat="51.816932" lon="-1.885485"><ele>130.40</ele><time>2011-01-19T10:41:11Z</time></trkpt><trkpt lat="51.816839" lon="-1.885807"><ele>130.88</ele><time>2011-01-19T10:41:28Z</time></trkpt><trkpt lat="51.816777" lon="-1.885965"><ele>131.36</ele><time>2011-01-19T10:41:42Z</time></trkpt><trkpt lat="51.816585" lon="-1.886436"><ele>131.36</ele><time>2011-01-19T10:42:07Z</time></trkpt><trkpt lat="51.816455" lon="-1.886737"><ele>130.88</ele><time>2011-01-19T10:42:25Z</time></trkpt><trkpt lat="51.816300" lon="-1.887073"><ele>130.88</ele><time>2011-01-19T10:42:47Z</time></trkpt><trkpt lat="51.816163" lon="-1.887315"><ele>129.92</ele><time>2011-01-19T10:43:05Z</time></trkpt><trkpt lat="51.816045" lon="-1.887533"><ele>130.40</ele><time>2011-01-19T10:43:23Z</time></trkpt><trkpt lat="51.815951" lon="-1.887718"><ele>129.92</ele><time>2011-01-19T10:43:38Z</time></trkpt><trkpt lat="51.815815" lon="-1.887989"><ele>129.92</ele><time>2011-01-19T10:43:58Z</time></trkpt><trkpt lat="51.815689" lon="-1.888227"><ele>130.40</ele><time>2011-01-19T10:44:16Z</time></trkpt><trkpt lat="51.815582" lon="-1.888447"><ele>130.88</ele><time>2011-01-19T10:44:33Z</time></trkpt><trkpt lat="51.815486" lon="-1.888643"><ele>130.88</ele><time>2011-01-19T10:44:48Z</time></trkpt><trkpt lat="51.815377" lon="-1.888885"><ele>131.84</ele><time>2011-01-19T10:45:06Z</time></trkpt><trkpt lat="51.815273" lon="-1.889113"><ele>132.32</ele><time>2011-01-19T10:45:23Z</time></trkpt><trkpt lat="51.815166" lon="-1.889373"><ele>132.80</ele><time>2011-01-19T10:45:42Z</time></trkpt><trkpt lat="51.815068" lon="-1.889629"><ele>132.32</ele><time>2011-01-19T10:46:01Z</time></trkpt><trkpt lat="51.814978" lon="-1.889894"><ele>132.80</ele><time>2011-01-19T10:46:18Z</time></trkpt><trkpt lat="51.814914" lon="-1.890133"><ele>132.32</ele><time>2011-01-19T10:46:34Z</time></trkpt><trkpt lat="51.814836" lon="-1.890410"><ele>132.32</ele><time>2011-01-19T10:46:52Z</time></trkpt><trkpt lat="51.814780" lon="-1.890676"><ele>132.80</ele><time>2011-01-19T10:47:09Z</time></trkpt><trkpt lat="51.814739" lon="-1.890935"><ele>133.76</ele><time>2011-01-19T10:47:26Z</time></trkpt><trkpt lat="51.814696" lon="-1.891235"><ele>134.24</ele><time>2011-01-19T10:47:43Z</time></trkpt><trkpt lat="51.814674" lon="-1.891471"><ele>135.68</ele><time>2011-01-19T10:47:58Z</time></trkpt><trkpt lat="51.814652" lon="-1.891761"><ele>135.20</ele><time>2011-01-19T10:48:13Z</time></trkpt><trkpt lat="51.814673" lon="-1.892064"><ele>136.16</ele><time>2011-01-19T10:48:29Z</time></trkpt><trkpt lat="51.814690" lon="-1.892446"><ele>134.24</ele><time>2011-01-19T10:48:48Z</time></trkpt><trkpt lat="51.814707" lon="-1.892749"><ele>136.16</ele><time>2011-01-19T10:49:04Z</time></trkpt><trkpt lat="51.814752" lon="-1.893050"><ele>139.05</ele><time>2011-01-19T10:49:21Z</time></trkpt><trkpt lat="51.814783" lon="-1.893357"><ele>139.05</ele><time>2011-01-19T10:49:39Z</time></trkpt><trkpt lat="51.814822" lon="-1.893630"><ele>138.09</ele><time>2011-01-19T10:49:55Z</time></trkpt><trkpt lat="51.814830" lon="-1.893694"><ele>138.09</ele><time>2011-01-19T10:49:59Z</time></trkpt><trkpt lat="51.814889" lon="-1.893965"><ele>137.61</ele><time>2011-01-19T10:50:17Z</time></trkpt><trkpt lat="51.814947" lon="-1.894145"><ele>138.09</ele><time>2011-01-19T10:50:31Z</time></trkpt><trkpt lat="51.815038" lon="-1.894399"><ele>138.09</ele><time>2011-01-19T10:50:48Z</time></trkpt><trkpt lat="51.815086" lon="-1.894533"><ele>137.61</ele><time>2011-01-19T10:51:02Z</time></trkpt><trkpt lat="51.815161" lon="-1.894609"><ele>138.57</ele><time>2011-01-19T10:51:16Z</time></trkpt><trkpt lat="51.815195" lon="-1.894650"><ele>139.53</ele><time>2011-01-19T10:51:20Z</time></trkpt><trkpt lat="51.815321" lon="-1.894846"><ele>136.16</ele><time>2011-01-19T10:51:38Z</time></trkpt><trkpt lat="51.815442" lon="-1.895008"><ele>136.16</ele><time>2011-01-19T10:51:54Z</time></trkpt><trkpt lat="51.815561" lon="-1.895170"><ele>136.64</ele><time>2011-01-19T10:52:09Z</time></trkpt><trkpt lat="51.815653" lon="-1.895275"><ele>135.68</ele><time>2011-01-19T10:52:20Z</time></trkpt><trkpt lat="51.815780" lon="-1.895530"><ele>131.84</ele><time>2011-01-19T10:52:40Z</time></trkpt><trkpt lat="51.815819" lon="-1.895720"><ele>128.95</ele><time>2011-01-19T10:52:58Z</time></trkpt><trkpt lat="51.815848" lon="-1.895737"><ele>129.43</ele><time>2011-01-19T10:53:05Z</time></trkpt><trkpt lat="51.815874" lon="-1.895766"><ele>129.43</ele><time>2011-01-19T10:53:09Z</time></trkpt><trkpt lat="51.815922" lon="-1.895749"><ele>129.43</ele><time>2011-01-19T10:53:18Z</time></trkpt><trkpt lat="51.815945" lon="-1.895732"><ele>130.40</ele><time>2011-01-19T10:53:32Z</time></trkpt><trkpt lat="51.815957" lon="-1.895733"><ele>130.88</ele><time>2011-01-19T10:53:54Z</time></trkpt><trkpt lat="51.815955" lon="-1.895702"><ele>132.32</ele><time>2011-01-19T10:54:14Z</time></trkpt><trkpt lat="51.815954" lon="-1.895696"><ele>132.32</ele><time>2011-01-19T10:54:54Z</time></trkpt><trkpt lat="51.815965" lon="-1.895612"><ele>133.28</ele><time>2011-01-19T10:55:16Z</time></trkpt><trkpt lat="51.816020" lon="-1.895485"><ele>135.20</ele><time>2011-01-19T10:55:27Z</time></trkpt><trkpt lat="51.816119" lon="-1.895348"><ele>135.20</ele><time>2011-01-19T10:55:41Z</time></trkpt><trkpt lat="51.816258" lon="-1.895232"><ele>135.20</ele><time>2011-01-19T10:55:55Z</time></trkpt><trkpt lat="51.816381" lon="-1.895121"><ele>135.20</ele><time>2011-01-19T10:56:08Z</time></trkpt><trkpt lat="51.816468" lon="-1.895056"><ele>134.24</ele><time>2011-01-19T10:56:17Z</time></trkpt><trkpt lat="51.816559" lon="-1.894968"><ele>136.16</ele><time>2011-01-19T10:56:29Z</time></trkpt><trkpt lat="51.816575" lon="-1.894963"><ele>136.64</ele><time>2011-01-19T10:56:31Z</time></trkpt><trkpt lat="51.816741" lon="-1.894851"><ele>136.64</ele><time>2011-01-19T10:56:46Z</time></trkpt><trkpt lat="51.816884" lon="-1.894730"><ele>137.61</ele><time>2011-01-19T10:57:01Z</time></trkpt><trkpt lat="51.816983" lon="-1.894641"><ele>139.53</ele><time>2011-01-19T10:57:13Z</time></trkpt><trkpt lat="51.817098" lon="-1.894560"><ele>140.97</ele><time>2011-01-19T10:57:27Z</time></trkpt><trkpt lat="51.817214" lon="-1.894485"><ele>142.41</ele><time>2011-01-19T10:57:41Z</time></trkpt><trkpt lat="51.817344" lon="-1.894409"><ele>146.74</ele><time>2011-01-19T10:57:56Z</time></trkpt><trkpt lat="51.817504" lon="-1.894327"><ele>150.58</ele><time>2011-01-19T10:58:12Z</time></trkpt><trkpt lat="51.817661" lon="-1.894259"><ele>151.54</ele><time>2011-01-19T10:58:28Z</time></trkpt><trkpt lat="51.817804" lon="-1.894214"><ele>153.95</ele><time>2011-01-19T10:58:42Z</time></trkpt><trkpt lat="51.817954" lon="-1.894203"><ele>155.39</ele><time>2011-01-19T10:58:58Z</time></trkpt><trkpt lat="51.818087" lon="-1.894219"><ele>157.31</ele><time>2011-01-19T10:59:12Z</time></trkpt><trkpt lat="51.818222" lon="-1.894237"><ele>157.79</ele><time>2011-01-19T10:59:26Z</time></trkpt><trkpt lat="51.818347" lon="-1.894271"><ele>157.31</ele><time>2011-01-19T10:59:41Z</time></trkpt><trkpt lat="51.818496" lon="-1.894278"><ele>160.20</ele><time>2011-01-19T10:59:56Z</time></trkpt><trkpt lat="51.818649" lon="-1.894292"><ele>161.64</ele><time>2011-01-19T11:00:11Z</time></trkpt><trkpt lat="51.818798" lon="-1.894301"><ele>161.64</ele><time>2011-01-19T11:00:26Z</time></trkpt><trkpt lat="51.818931" lon="-1.894296"><ele>162.12</ele><time>2011-01-19T11:00:40Z</time></trkpt><trkpt lat="51.819060" lon="-1.894297"><ele>163.08</ele><time>2011-01-19T11:00:54Z</time></trkpt><trkpt lat="51.819214" lon="-1.894287"><ele>163.56</ele><time>2011-01-19T11:01:10Z</time></trkpt><trkpt lat="51.819347" lon="-1.894255"><ele>165.00</ele><time>2011-01-19T11:01:25Z</time></trkpt><trkpt lat="51.819390" lon="-1.894215"><ele>165.96</ele><time>2011-01-19T11:01:38Z</time></trkpt><trkpt lat="51.819430" lon="-1.894196"><ele>166.45</ele><time>2011-01-19T11:01:50Z</time></trkpt><trkpt lat="51.819511" lon="-1.894164"><ele>166.45</ele><time>2011-01-19T11:02:06Z</time></trkpt><trkpt lat="51.819501" lon="-1.894162"><ele>164.52</ele><time>2011-01-19T11:02:30Z</time></trkpt><trkpt lat="51.819538" lon="-1.894084"><ele>161.64</ele><time>2011-01-19T11:02:49Z</time></trkpt><trkpt lat="51.819521" lon="-1.894114"><ele>161.16</ele><time>2011-01-19T11:03:11Z</time></trkpt><trkpt lat="51.819511" lon="-1.894117"><ele>161.16</ele><time>2011-01-19T11:03:32Z</time></trkpt><trkpt lat="51.819515" lon="-1.894115"><ele>160.68</ele><time>2011-01-19T11:04:00Z</time></trkpt><trkpt lat="51.819520" lon="-1.894111"><ele>161.16</ele><time>2011-01-19T11:04:37Z</time></trkpt><trkpt lat="51.819526" lon="-1.894110"><ele>161.64</ele><time>2011-01-19T11:05:17Z</time></trkpt><trkpt lat="51.819517" lon="-1.894118"><ele>162.60</ele><time>2011-01-19T11:07:08Z</time></trkpt><trkpt lat="51.819517" lon="-1.894114"><ele>163.56</ele><time>2011-01-19T11:08:07Z</time></trkpt><trkpt lat="51.819513" lon="-1.894101"><ele>163.08</ele><time>2011-01-19T11:08:55Z</time></trkpt><trkpt lat="51.819517" lon="-1.894112"><ele>162.60</ele><time>2011-01-19T11:12:16Z</time></trkpt><trkpt lat="51.819517" lon="-1.894110"><ele>162.60</ele><time>2011-01-19T11:13:28Z</time></trkpt><trkpt lat="51.819523" lon="-1.894112"><ele>162.12</ele><time>2011-01-19T11:17:29Z</time></trkpt><trkpt lat="51.819537" lon="-1.894098"><ele>161.64</ele><time>2011-01-19T11:17:40Z</time></trkpt><trkpt lat="51.819526" lon="-1.894091"><ele>162.60</ele><time>2011-01-19T11:19:58Z</time></trkpt><trkpt lat="51.819523" lon="-1.894156"><ele>164.04</ele><time>2011-01-19T11:20:08Z</time></trkpt><trkpt lat="51.819577" lon="-1.894173"><ele>164.52</ele><time>2011-01-19T11:20:14Z</time></trkpt><trkpt lat="51.819766" lon="-1.894090"><ele>160.68</ele><time>2011-01-19T11:20:33Z</time></trkpt><trkpt lat="51.819935" lon="-1.894044"><ele>162.60</ele><time>2011-01-19T11:20:51Z</time></trkpt><trkpt lat="51.820088" lon="-1.894046"><ele>166.45</ele><time>2011-01-19T11:21:07Z</time></trkpt><trkpt lat="51.820210" lon="-1.894065"><ele>169.33</ele><time>2011-01-19T11:21:20Z</time></trkpt><trkpt lat="51.820260" lon="-1.894017"><ele>170.77</ele><time>2011-01-19T11:21:32Z</time></trkpt><trkpt lat="51.820339" lon="-1.894061"><ele>172.21</ele><time>2011-01-19T11:21:43Z</time></trkpt><trkpt lat="51.820447" lon="-1.894115"><ele>174.62</ele><time>2011-01-19T11:21:57Z</time></trkpt><trkpt lat="51.820565" lon="-1.894156"><ele>177.50</ele><time>2011-01-19T11:22:12Z</time></trkpt><trkpt lat="51.820668" lon="-1.894209"><ele>178.94</ele><time>2011-01-19T11:22:26Z</time></trkpt><trkpt lat="51.820771" lon="-1.894258"><ele>180.87</ele><time>2011-01-19T11:22:39Z</time></trkpt><trkpt lat="51.820877" lon="-1.894305"><ele>181.35</ele><time>2011-01-19T11:22:51Z</time></trkpt><trkpt lat="51.820944" lon="-1.894323"><ele>181.35</ele><time>2011-01-19T11:23:02Z</time></trkpt><trkpt lat="51.821046" lon="-1.894377"><ele>181.35</ele><time>2011-01-19T11:23:14Z</time></trkpt><trkpt lat="51.821169" lon="-1.894462"><ele>182.31</ele><time>2011-01-19T11:23:28Z</time></trkpt><trkpt lat="51.821253" lon="-1.894479"><ele>181.83</ele><time>2011-01-19T11:23:40Z</time></trkpt><trkpt lat="51.821260" lon="-1.894492"><ele>181.83</ele><time>2011-01-19T11:23:44Z</time></trkpt><trkpt lat="51.821285" lon="-1.894459"><ele>181.83</ele><time>2011-01-19T11:23:48Z</time></trkpt><trkpt lat="51.821395" lon="-1.894111"><ele>182.79</ele><time>2011-01-19T11:24:06Z</time></trkpt><trkpt lat="51.821436" lon="-1.893722"><ele>184.23</ele><time>2011-01-19T11:24:26Z</time></trkpt><trkpt lat="51.821484" lon="-1.893398"><ele>185.19</ele><time>2011-01-19T11:24:45Z</time></trkpt><trkpt lat="51.821518" lon="-1.893252"><ele>184.71</ele><time>2011-01-19T11:24:55Z</time></trkpt><trkpt lat="51.821604" lon="-1.892991"><ele>184.71</ele><time>2011-01-19T11:25:13Z</time></trkpt><trkpt lat="51.821691" lon="-1.892802"><ele>185.19</ele><time>2011-01-19T11:25:28Z</time></trkpt><trkpt lat="51.821766" lon="-1.892631"><ele>186.63</ele><time>2011-01-19T11:25:41Z</time></trkpt><trkpt lat="51.821779" lon="-1.892603"><ele>186.63</ele><time>2011-01-19T11:25:43Z</time></trkpt><trkpt lat="51.821873" lon="-1.892395"><ele>187.59</ele><time>2011-01-19T11:26:00Z</time></trkpt><trkpt lat="51.821964" lon="-1.892192"><ele>187.59</ele><time>2011-01-19T11:26:15Z</time></trkpt><trkpt lat="51.822047" lon="-1.892007"><ele>188.08</ele><time>2011-01-19T11:26:30Z</time></trkpt><trkpt lat="51.822092" lon="-1.891934"><ele>188.08</ele><time>2011-01-19T11:26:42Z</time></trkpt><trkpt lat="51.822163" lon="-1.891762"><ele>188.56</ele><time>2011-01-19T11:26:56Z</time></trkpt><trkpt lat="51.822185" lon="-1.891683"><ele>188.08</ele><time>2011-01-19T11:27:01Z</time></trkpt><trkpt lat="51.822304" lon="-1.891351"><ele>186.15</ele><time>2011-01-19T11:27:23Z</time></trkpt><trkpt lat="51.822402" lon="-1.891166"><ele>184.71</ele><time>2011-01-19T11:27:39Z</time></trkpt><trkpt lat="51.822565" lon="-1.890869"><ele>185.19</ele><time>2011-01-19T11:28:02Z</time></trkpt><trkpt lat="51.822663" lon="-1.890633"><ele>185.19</ele><time>2011-01-19T11:28:19Z</time></trkpt><trkpt lat="51.822774" lon="-1.890446"><ele>183.75</ele><time>2011-01-19T11:28:37Z</time></trkpt><trkpt lat="51.822801" lon="-1.890362"><ele>183.27</ele><time>2011-01-19T11:29:02Z</time></trkpt><trkpt lat="51.822927" lon="-1.890088"><ele>182.79</ele><time>2011-01-19T11:29:21Z</time></trkpt><trkpt lat="51.822946" lon="-1.890018"><ele>181.83</ele><time>2011-01-19T11:29:26Z</time></trkpt><trkpt lat="51.823033" lon="-1.889673"><ele>179.42</ele><time>2011-01-19T11:29:50Z</time></trkpt><trkpt lat="51.823133" lon="-1.889362"><ele>178.94</ele><time>2011-01-19T11:30:13Z</time></trkpt><trkpt lat="51.823209" lon="-1.889187"><ele>180.38</ele><time>2011-01-19T11:30:35Z</time></trkpt><trkpt lat="51.823364" lon="-1.889268"><ele>181.35</ele><time>2011-01-19T11:30:52Z</time></trkpt><trkpt lat="51.823499" lon="-1.889317"><ele>182.79</ele><time>2011-01-19T11:31:12Z</time></trkpt><trkpt lat="51.823521" lon="-1.889224"><ele>183.27</ele><time>2011-01-19T11:31:28Z</time></trkpt><trkpt lat="51.823571" lon="-1.888986"><ele>186.15</ele><time>2011-01-19T11:31:44Z</time></trkpt><trkpt lat="51.823536" lon="-1.888551"><ele>183.27</ele><time>2011-01-19T11:32:10Z</time></trkpt><trkpt lat="51.823554" lon="-1.888131"><ele>180.38</ele><time>2011-01-19T11:32:35Z</time></trkpt><trkpt lat="51.823593" lon="-1.887812"><ele>178.46</ele><time>2011-01-19T11:32:53Z</time></trkpt><trkpt lat="51.823615" lon="-1.887491"><ele>178.46</ele><time>2011-01-19T11:33:12Z</time></trkpt><trkpt lat="51.823577" lon="-1.887189"><ele>175.10</ele><time>2011-01-19T11:33:31Z</time></trkpt><trkpt lat="51.823516" lon="-1.886880"><ele>169.81</ele><time>2011-01-19T11:33:51Z</time></trkpt><trkpt lat="51.823464" lon="-1.886717"><ele>167.89</ele><time>2011-01-19T11:34:02Z</time></trkpt><trkpt lat="51.823396" lon="-1.886465"><ele>166.45</ele><time>2011-01-19T11:34:20Z</time></trkpt><trkpt lat="51.823406" lon="-1.886433"><ele>166.45</ele><time>2011-01-19T11:34:23Z</time></trkpt><trkpt lat="51.823429" lon="-1.886408"><ele>164.04</ele><time>2011-01-19T11:34:33Z</time></trkpt><trkpt lat="51.823453" lon="-1.886475"><ele>166.45</ele><time>2011-01-19T11:34:50Z</time></trkpt><trkpt lat="51.823489" lon="-1.886471"><ele>166.93</ele><time>2011-01-19T11:35:20Z</time></trkpt><trkpt lat="51.823532" lon="-1.886502"><ele>163.08</ele><time>2011-01-19T11:35:52Z</time></trkpt><trkpt lat="51.823612" lon="-1.886355"><ele>156.83</ele><time>2011-01-19T11:36:19Z</time></trkpt><trkpt lat="51.823637" lon="-1.886261"><ele>154.91</ele><time>2011-01-19T11:36:22Z</time></trkpt><trkpt lat="51.823640" lon="-1.886097"><ele>152.99</ele><time>2011-01-19T11:36:26Z</time></trkpt><trkpt lat="51.823536" lon="-1.885911"><ele>153.47</ele><time>2011-01-19T11:36:37Z</time></trkpt><trkpt lat="51.823490" lon="-1.886070"><ele>155.39</ele><time>2011-01-19T11:36:41Z</time></trkpt><trkpt lat="51.823335" lon="-1.886564"><ele>154.91</ele><time>2011-01-19T11:36:53Z</time></trkpt><trkpt lat="51.823206" lon="-1.886842"><ele>153.95</ele><time>2011-01-19T11:37:04Z</time></trkpt><trkpt lat="51.823184" lon="-1.886880"><ele>153.95</ele><time>2011-01-19T11:37:07Z</time></trkpt><trkpt lat="51.823229" lon="-1.886735"><ele>152.99</ele><time>2011-01-19T11:37:14Z</time></trkpt><trkpt lat="51.823390" lon="-1.886427"><ele>153.95</ele><time>2011-01-19T11:37:20Z</time></trkpt><trkpt lat="51.823552" lon="-1.886205"><ele>153.95</ele><time>2011-01-19T11:37:26Z</time></trkpt><trkpt lat="51.824027" lon="-1.885818"><ele>141.93</ele><time>2011-01-19T11:37:39Z</time></trkpt><trkpt lat="51.823994" lon="-1.885894"><ele>138.09</ele><time>2011-01-19T11:37:43Z</time></trkpt><trkpt lat="51.824003" lon="-1.885952"><ele>134.72</ele><time>2011-01-19T11:37:47Z</time></trkpt><trkpt lat="51.823988" lon="-1.886001"><ele>123.19</ele><time>2011-01-19T11:38:02Z</time></trkpt><trkpt lat="51.823931" lon="-1.886121"><ele>113.09</ele><time>2011-01-19T11:38:14Z</time></trkpt><trkpt lat="51.823940" lon="-1.886110"><ele>111.65</ele><time>2011-01-19T11:38:17Z</time></trkpt><trkpt lat="51.823897" lon="-1.886341"><ele>110.21</ele><time>2011-01-19T11:38:33Z</time></trkpt><trkpt lat="51.823627" lon="-1.886518"><ele>113.09</ele><time>2011-01-19T11:38:47Z</time></trkpt><trkpt lat="51.823569" lon="-1.886433"><ele>118.38</ele><time>2011-01-19T11:38:54Z</time></trkpt><trkpt lat="51.823535" lon="-1.886384"><ele>124.63</ele><time>2011-01-19T11:39:08Z</time></trkpt><trkpt lat="51.823539" lon="-1.886359"><ele>124.15</ele><time>2011-01-19T11:39:11Z</time></trkpt><trkpt lat="51.823549" lon="-1.886406"><ele>124.15</ele><time>2011-01-19T11:39:19Z</time></trkpt><trkpt lat="51.823528" lon="-1.886728"><ele>119.82</ele><time>2011-01-19T11:39:30Z</time></trkpt><trkpt lat="51.823461" lon="-1.886797"><ele>115.01</ele><time>2011-01-19T11:39:38Z</time></trkpt><trkpt lat="51.823127" lon="-1.887283"><ele>106.84</ele><time>2011-01-19T11:39:53Z</time></trkpt><trkpt lat="51.823106" lon="-1.887343"><ele>106.36</ele><time>2011-01-19T11:39:54Z</time></trkpt><trkpt lat="51.823280" lon="-1.887041"><ele>103.48</ele><time>2011-01-19T11:39:59Z</time></trkpt><trkpt lat="51.823328" lon="-1.886869"><ele>100.11</ele><time>2011-01-19T11:40:03Z</time></trkpt><trkpt lat="51.823370" lon="-1.886637"><ele>94.35</ele><time>2011-01-19T11:40:09Z</time></trkpt><trkpt lat="51.823320" lon="-1.886410"><ele>80.41</ele><time>2011-01-19T11:40:21Z</time></trkpt><trkpt lat="51.823320" lon="-1.886358"><ele>78.00</ele><time>2011-01-19T11:40:24Z</time></trkpt><trkpt lat="51.823376" lon="-1.886380"><ele>73.68</ele><time>2011-01-19T11:40:29Z</time></trkpt><trkpt lat="51.823419" lon="-1.886412"><ele>70.79</ele><time>2011-01-19T11:40:33Z</time></trkpt><trkpt lat="51.823455" lon="-1.886567"><ele>65.51</ele><time>2011-01-19T11:40:39Z</time></trkpt><trkpt lat="51.823416" lon="-1.886905"><ele>57.82</ele><time>2011-01-19T11:40:48Z</time></trkpt><trkpt lat="51.823503" lon="-1.887093"><ele>53.97</ele><time>2011-01-19T11:40:57Z</time></trkpt><trkpt lat="51.823716" lon="-1.886693"><ele>50.61</ele><time>2011-01-19T11:41:11Z</time></trkpt><trkpt lat="51.823989" lon="-1.886294"><ele>48.20</ele><time>2011-01-19T11:41:24Z</time></trkpt><trkpt lat="51.824023" lon="-1.886240"><ele>47.72</ele><time>2011-01-19T11:41:26Z</time></trkpt><trkpt lat="51.824111" lon="-1.886128"><ele>47.24</ele><time>2011-01-19T11:41:33Z</time></trkpt><trkpt lat="51.824120" lon="-1.886164"><ele>37.15</ele><time>2011-01-19T11:41:46Z</time></trkpt><trkpt lat="51.824114" lon="-1.886139"><ele>36.19</ele><time>2011-01-19T11:41:48Z</time></trkpt><trkpt lat="51.824060" lon="-1.886131"><ele>37.15</ele><time>2011-01-19T11:42:02Z</time></trkpt><trkpt lat="51.823522" lon="-1.886276"><ele>107.81</ele><time>2011-01-19T11:42:22Z</time></trkpt><trkpt lat="51.823476" lon="-1.886290"><ele>125.11</ele><time>2011-01-19T11:42:24Z</time></trkpt><trkpt lat="51.823288" lon="-1.886249"><ele>155.87</ele><time>2011-01-19T11:42:37Z</time></trkpt><trkpt lat="51.823253" lon="-1.886125"><ele>160.68</ele><time>2011-01-19T11:42:52Z</time></trkpt><trkpt lat="51.823172" lon="-1.885978"><ele>162.60</ele><time>2011-01-19T11:43:05Z</time></trkpt><trkpt lat="51.823076" lon="-1.885713"><ele>164.52</ele><time>2011-01-19T11:43:24Z</time></trkpt><trkpt lat="51.823071" lon="-1.885687"><ele>164.52</ele><time>2011-01-19T11:43:26Z</time></trkpt><trkpt lat="51.823029" lon="-1.885574"><ele>165.00</ele><time>2011-01-19T11:43:35Z</time></trkpt><trkpt lat="51.822890" lon="-1.885531"><ele>165.48</ele><time>2011-01-19T11:43:49Z</time></trkpt><trkpt lat="51.822739" lon="-1.885549"><ele>164.04</ele><time>2011-01-19T11:44:02Z</time></trkpt><trkpt lat="51.822660" lon="-1.885555"><ele>162.60</ele><time>2011-01-19T11:44:09Z</time></trkpt><trkpt lat="51.822443" lon="-1.885586"><ele>162.12</ele><time>2011-01-19T11:44:28Z</time></trkpt><trkpt lat="51.822264" lon="-1.885618"><ele>161.16</ele><time>2011-01-19T11:44:44Z</time></trkpt><trkpt lat="51.822065" lon="-1.885683"><ele>160.20</ele><time>2011-01-19T11:45:03Z</time></trkpt><trkpt lat="51.821866" lon="-1.885778"><ele>158.75</ele><time>2011-01-19T11:45:22Z</time></trkpt><trkpt lat="51.821710" lon="-1.885912"><ele>158.75</ele><time>2011-01-19T11:45:39Z</time></trkpt><trkpt lat="51.821571" lon="-1.886050"><ele>158.75</ele><time>2011-01-19T11:45:56Z</time></trkpt><trkpt lat="51.821424" lon="-1.886223"><ele>158.75</ele><time>2011-01-19T11:46:14Z</time></trkpt><trkpt lat="51.821256" lon="-1.886395"><ele>157.79</ele><time>2011-01-19T11:46:32Z</time></trkpt><trkpt lat="51.821105" lon="-1.886591"><ele>157.79</ele><time>2011-01-19T11:46:50Z</time></trkpt><trkpt lat="51.820982" lon="-1.886772"><ele>156.83</ele><time>2011-01-19T11:47:06Z</time></trkpt><trkpt lat="51.820956" lon="-1.886795"><ele>156.83</ele><time>2011-01-19T11:47:10Z</time></trkpt><trkpt lat="51.820845" lon="-1.886722"><ele>156.35</ele><time>2011-01-19T11:47:24Z</time></trkpt><trkpt lat="51.820728" lon="-1.886595"><ele>154.91</ele><time>2011-01-19T11:47:39Z</time></trkpt><trkpt lat="51.820596" lon="-1.886459"><ele>152.51</ele><time>2011-01-19T11:47:55Z</time></trkpt><trkpt lat="51.820435" lon="-1.886280"><ele>152.99</ele><time>2011-01-19T11:48:14Z</time></trkpt><trkpt lat="51.820227" lon="-1.886080"><ele>150.58</ele><time>2011-01-19T11:48:36Z</time></trkpt><trkpt lat="51.820045" lon="-1.885933"><ele>149.14</ele><time>2011-01-19T11:48:55Z</time></trkpt><trkpt lat="51.819864" lon="-1.885814"><ele>146.26</ele><time>2011-01-19T11:49:13Z</time></trkpt><trkpt lat="51.819676" lon="-1.885702"><ele>143.85</ele><time>2011-01-19T11:49:32Z</time></trkpt><trkpt lat="51.819469" lon="-1.885569"><ele>143.85</ele><time>2011-01-19T11:49:51Z</time></trkpt><trkpt lat="51.819278" lon="-1.885454"><ele>144.34</ele><time>2011-01-19T11:50:09Z</time></trkpt><trkpt lat="51.819072" lon="-1.885309"><ele>143.37</ele><time>2011-01-19T11:50:28Z</time></trkpt><trkpt lat="51.818969" lon="-1.885234"><ele>143.37</ele><time>2011-01-19T11:50:41Z</time></trkpt><trkpt lat="51.818971" lon="-1.885246"><ele>143.85</ele><time>2011-01-19T11:50:48Z</time></trkpt><trkpt lat="51.818889" lon="-1.885128"><ele>140.01</ele><time>2011-01-19T11:51:01Z</time></trkpt><trkpt lat="51.818728" lon="-1.884875"><ele>137.13</ele><time>2011-01-19T11:51:21Z</time></trkpt><trkpt lat="51.818551" lon="-1.884662"><ele>135.20</ele><time>2011-01-19T11:51:40Z</time></trkpt><trkpt lat="51.818356" lon="-1.884525"><ele>136.16</ele><time>2011-01-19T11:51:57Z</time></trkpt><trkpt lat="51.818144" lon="-1.884475"><ele>134.24</ele><time>2011-01-19T11:52:16Z</time></trkpt><trkpt lat="51.817954" lon="-1.884416"><ele>132.80</ele><time>2011-01-19T11:52:32Z</time></trkpt><trkpt lat="51.817777" lon="-1.884360"><ele>130.88</ele><time>2011-01-19T11:52:49Z</time></trkpt><trkpt lat="51.817729" lon="-1.884372"><ele>132.32</ele><time>2011-01-19T11:53:01Z</time></trkpt><trkpt lat="51.817500" lon="-1.884272"><ele>129.92</ele><time>2011-01-19T11:53:21Z</time></trkpt><trkpt lat="51.817320" lon="-1.884123"><ele>130.88</ele><time>2011-01-19T11:53:39Z</time></trkpt><trkpt lat="51.817295" lon="-1.884099"><ele>130.88</ele><time>2011-01-19T11:53:42Z</time></trkpt><trkpt lat="51.817260" lon="-1.883983"><ele>131.36</ele><time>2011-01-19T11:53:57Z</time></trkpt><trkpt lat="51.817236" lon="-1.883944"><ele>131.84</ele><time>2011-01-19T11:54:11Z</time></trkpt><trkpt lat="51.817239" lon="-1.883946"><ele>131.84</ele><time>2011-01-19T11:54:14Z</time></trkpt><trkpt lat="51.817239" lon="-1.883683"><ele>131.84</ele><time>2011-01-19T11:54:30Z</time></trkpt><trkpt lat="51.817253" lon="-1.883381"><ele>133.76</ele><time>2011-01-19T11:54:48Z</time></trkpt><trkpt lat="51.817266" lon="-1.883177"><ele>134.72</ele><time>2011-01-19T11:55:01Z</time></trkpt><trkpt lat="51.817306" lon="-1.882929"><ele>136.64</ele><time>2011-01-19T11:55:17Z</time></trkpt><trkpt lat="51.817316" lon="-1.882789"><ele>137.13</ele><time>2011-01-19T11:55:26Z</time></trkpt><trkpt lat="51.817322" lon="-1.882762"><ele>137.61</ele><time>2011-01-19T11:55:28Z</time></trkpt><trkpt lat="51.817447" lon="-1.882547"><ele>143.37</ele><time>2011-01-19T11:55:44Z</time></trkpt><trkpt lat="51.817534" lon="-1.882427"><ele>145.78</ele><time>2011-01-19T11:55:57Z</time></trkpt><trkpt lat="51.817662" lon="-1.882264"><ele>149.62</ele><time>2011-01-19T11:56:13Z</time></trkpt><trkpt lat="51.817669" lon="-1.882254"><ele>150.10</ele><time>2011-01-19T11:56:14Z</time></trkpt><trkpt lat="51.817689" lon="-1.882212"><ele>149.62</ele><time>2011-01-19T11:56:18Z</time></trkpt><trkpt lat="51.817794" lon="-1.882053"><ele>148.66</ele><time>2011-01-19T11:56:33Z</time></trkpt><trkpt lat="51.817908" lon="-1.881933"><ele>152.51</ele><time>2011-01-19T11:56:49Z</time></trkpt><trkpt lat="51.817972" lon="-1.881873"><ele>155.87</ele><time>2011-01-19T11:56:56Z</time></trkpt><trkpt lat="51.817999" lon="-1.881839"><ele>156.83</ele><time>2011-01-19T11:56:59Z</time></trkpt><trkpt lat="51.817994" lon="-1.881704"><ele>154.43</ele><time>2011-01-19T11:57:11Z</time></trkpt><trkpt lat="51.818015" lon="-1.881719"><ele>154.91</ele><time>2011-01-19T11:57:28Z</time></trkpt><trkpt lat="51.817988" lon="-1.881735"><ele>156.83</ele><time>2011-01-19T11:57:53Z</time></trkpt><trkpt lat="51.817942" lon="-1.881682"><ele>155.87</ele><time>2011-01-19T11:58:01Z</time></trkpt><trkpt lat="51.817798" lon="-1.881517"><ele>156.83</ele><time>2011-01-19T11:58:16Z</time></trkpt><trkpt lat="51.817740" lon="-1.881469"><ele>155.39</ele><time>2011-01-19T11:58:22Z</time></trkpt><trkpt lat="51.817626" lon="-1.881403"><ele>152.51</ele><time>2011-01-19T11:58:37Z</time></trkpt><trkpt lat="51.817482" lon="-1.881311"><ele>146.26</ele><time>2011-01-19T11:58:54Z</time></trkpt><trkpt lat="51.817343" lon="-1.881239"><ele>140.49</ele><time>2011-01-19T11:59:09Z</time></trkpt><trkpt lat="51.817191" lon="-1.881111"><ele>138.09</ele><time>2011-01-19T11:59:24Z</time></trkpt><trkpt lat="51.817019" lon="-1.880984"><ele>139.05</ele><time>2011-01-19T11:59:41Z</time></trkpt><trkpt lat="51.816847" lon="-1.880867"><ele>137.13</ele><time>2011-01-19T11:59:58Z</time></trkpt><trkpt lat="51.816659" lon="-1.880843"><ele>136.64</ele><time>2011-01-19T12:00:16Z</time></trkpt><trkpt lat="51.816547" lon="-1.880857"><ele>135.20</ele><time>2011-01-19T12:00:32Z</time></trkpt><trkpt lat="51.816528" lon="-1.880853"><ele>134.24</ele><time>2011-01-19T12:00:48Z</time></trkpt><trkpt lat="51.816517" lon="-1.880853"><ele>133.28</ele><time>2011-01-19T12:00:51Z</time></trkpt><trkpt lat="51.816376" lon="-1.880826"><ele>130.88</ele><time>2011-01-19T12:01:04Z</time></trkpt><trkpt lat="51.816233" lon="-1.880752"><ele>129.92</ele><time>2011-01-19T12:01:18Z</time></trkpt><trkpt lat="51.816183" lon="-1.880729"><ele>131.84</ele><time>2011-01-19T12:01:23Z</time></trkpt><trkpt lat="51.816028" lon="-1.880676"><ele>131.84</ele><time>2011-01-19T12:01:39Z</time></trkpt><trkpt lat="51.815871" lon="-1.880621"><ele>129.92</ele><time>2011-01-19T12:01:56Z</time></trkpt><trkpt lat="51.815716" lon="-1.880570"><ele>127.51</ele><time>2011-01-19T12:02:13Z</time></trkpt><trkpt lat="51.815704" lon="-1.880562"><ele>129.92</ele><time>2011-01-19T12:02:14Z</time></trkpt><trkpt lat="51.815675" lon="-1.880541"><ele>130.88</ele><time>2011-01-19T12:02:29Z</time></trkpt><trkpt lat="51.815502" lon="-1.880452"><ele>127.51</ele><time>2011-01-19T12:02:46Z</time></trkpt><trkpt lat="51.815461" lon="-1.880436"><ele>126.07</ele><time>2011-01-19T12:02:50Z</time></trkpt><trkpt lat="51.815312" lon="-1.880369"><ele>127.03</ele><time>2011-01-19T12:03:05Z</time></trkpt><trkpt lat="51.815092" lon="-1.880271"><ele>127.99</ele><time>2011-01-19T12:03:24Z</time></trkpt><trkpt lat="51.814898" lon="-1.880202"><ele>127.03</ele><time>2011-01-19T12:03:42Z</time></trkpt><trkpt lat="51.814699" lon="-1.880131"><ele>129.43</ele><time>2011-01-19T12:04:00Z</time></trkpt><trkpt lat="51.814591" lon="-1.880127"><ele>129.43</ele><time>2011-01-19T12:04:15Z</time></trkpt><trkpt lat="51.814567" lon="-1.880126"><ele>128.95</ele><time>2011-01-19T12:04:25Z</time></trkpt><trkpt lat="51.814548" lon="-1.880126"><ele>129.43</ele><time>2011-01-19T12:04:45Z</time></trkpt><trkpt lat="51.814425" lon="-1.880014"><ele>128.95</ele><time>2011-01-19T12:05:04Z</time></trkpt><trkpt lat="51.814306" lon="-1.879954"><ele>129.43</ele><time>2011-01-19T12:05:24Z</time></trkpt><trkpt lat="51.814151" lon="-1.879906"><ele>129.92</ele><time>2011-01-19T12:05:39Z</time></trkpt><trkpt lat="51.813951" lon="-1.879847"><ele>130.40</ele><time>2011-01-19T12:05:57Z</time></trkpt><trkpt lat="51.813737" lon="-1.879815"><ele>130.40</ele><time>2011-01-19T12:06:16Z</time></trkpt><trkpt lat="51.813538" lon="-1.879775"><ele>129.92</ele><time>2011-01-19T12:06:34Z</time></trkpt><trkpt lat="51.813318" lon="-1.879757"><ele>128.95</ele><time>2011-01-19T12:06:56Z</time></trkpt><trkpt lat="51.813166" lon="-1.879753"><ele>128.95</ele><time>2011-01-19T12:07:11Z</time></trkpt><trkpt lat="51.813098" lon="-1.879745"><ele>128.95</ele><time>2011-01-19T12:07:22Z</time></trkpt><trkpt lat="51.812988" lon="-1.879744"><ele>128.47</ele><time>2011-01-19T12:07:35Z</time></trkpt><trkpt lat="51.812817" lon="-1.879738"><ele>128.95</ele><time>2011-01-19T12:07:51Z</time></trkpt><trkpt lat="51.812638" lon="-1.879727"><ele>130.40</ele><time>2011-01-19T12:08:09Z</time></trkpt><trkpt lat="51.812519" lon="-1.879715"><ele>130.88</ele><time>2011-01-19T12:08:25Z</time></trkpt><trkpt lat="51.812429" lon="-1.879657"><ele>132.32</ele><time>2011-01-19T12:08:41Z</time></trkpt><trkpt lat="51.812378" lon="-1.879657"><ele>131.84</ele><time>2011-01-19T12:08:58Z</time></trkpt><trkpt lat="51.812349" lon="-1.879614"><ele>132.32</ele><time>2011-01-19T12:09:14Z</time></trkpt><trkpt lat="51.812305" lon="-1.879635"><ele>132.80</ele><time>2011-01-19T12:09:34Z</time></trkpt><trkpt lat="51.812108" lon="-1.879612"><ele>131.84</ele><time>2011-01-19T12:09:49Z</time></trkpt><trkpt lat="51.811909" lon="-1.879687"><ele>129.92</ele><time>2011-01-19T12:10:06Z</time></trkpt><trkpt lat="51.811737" lon="-1.879813"><ele>128.47</ele><time>2011-01-19T12:10:24Z</time></trkpt><trkpt lat="51.811674" lon="-1.879860"><ele>125.11</ele><time>2011-01-19T12:10:39Z</time></trkpt><trkpt lat="51.811650" lon="-1.879868"><ele>124.63</ele><time>2011-01-19T12:10:45Z</time></trkpt><trkpt lat="51.811564" lon="-1.879955"><ele>127.51</ele><time>2011-01-19T12:10:58Z</time></trkpt><trkpt lat="51.811506" lon="-1.879993"><ele>127.99</ele><time>2011-01-19T12:11:06Z</time></trkpt><trkpt lat="51.811355" lon="-1.880035"><ele>131.84</ele><time>2011-01-19T12:11:22Z</time></trkpt><trkpt lat="51.811214" lon="-1.880055"><ele>135.20</ele><time>2011-01-19T12:11:35Z</time></trkpt><trkpt lat="51.811030" lon="-1.880075"><ele>136.16</ele><time>2011-01-19T12:11:51Z</time></trkpt><trkpt lat="51.810875" lon="-1.880065"><ele>137.13</ele><time>2011-01-19T12:12:07Z</time></trkpt><trkpt lat="51.810775" lon="-1.880070"><ele>138.09</ele><time>2011-01-19T12:12:20Z</time></trkpt><trkpt lat="51.810597" lon="-1.880102"><ele>138.57</ele><time>2011-01-19T12:12:36Z</time></trkpt><trkpt lat="51.810493" lon="-1.880110"><ele>139.05</ele><time>2011-01-19T12:12:47Z</time></trkpt><trkpt lat="51.810442" lon="-1.880124"><ele>139.53</ele><time>2011-01-19T12:12:53Z</time></trkpt><trkpt lat="51.810257" lon="-1.880113"><ele>141.45</ele><time>2011-01-19T12:13:10Z</time></trkpt><trkpt lat="51.810094" lon="-1.880113"><ele>142.89</ele><time>2011-01-19T12:13:26Z</time></trkpt><trkpt lat="51.809917" lon="-1.880147"><ele>138.57</ele><time>2011-01-19T12:13:46Z</time></trkpt><trkpt lat="51.809767" lon="-1.880137"><ele>141.93</ele><time>2011-01-19T12:14:01Z</time></trkpt><trkpt lat="51.809744" lon="-1.880151"><ele>141.93</ele><time>2011-01-19T12:14:04Z</time></trkpt><trkpt lat="51.809570" lon="-1.880192"><ele>140.97</ele><time>2011-01-19T12:14:20Z</time></trkpt><trkpt lat="51.809430" lon="-1.880301"><ele>143.37</ele><time>2011-01-19T12:14:36Z</time></trkpt><trkpt lat="51.809429" lon="-1.880302"><ele>142.89</ele><time>2011-01-19T12:14:37Z</time></trkpt><trkpt lat="51.809246" lon="-1.880272"><ele>142.89</ele><time>2011-01-19T12:14:52Z</time></trkpt><trkpt lat="51.809188" lon="-1.880279"><ele>143.85</ele><time>2011-01-19T12:15:11Z</time></trkpt><trkpt lat="51.809063" lon="-1.880227"><ele>145.30</ele><time>2011-01-19T12:15:34Z</time></trkpt><trkpt lat="51.809043" lon="-1.880217"><ele>145.30</ele><time>2011-01-19T12:15:36Z</time></trkpt><trkpt lat="51.808896" lon="-1.880097"><ele>152.51</ele><time>2011-01-19T12:15:52Z</time></trkpt><trkpt lat="51.808838" lon="-1.880087"><ele>153.47</ele><time>2011-01-19T12:16:04Z</time></trkpt><trkpt lat="51.808830" lon="-1.880084"><ele>153.47</ele><time>2011-01-19T12:16:06Z</time></trkpt><trkpt lat="51.808810" lon="-1.880098"><ele>152.99</ele><time>2011-01-19T12:16:09Z</time></trkpt><trkpt lat="51.808714" lon="-1.880251"><ele>154.43</ele><time>2011-01-19T12:16:24Z</time></trkpt><trkpt lat="51.808606" lon="-1.880371"><ele>156.83</ele><time>2011-01-19T12:16:37Z</time></trkpt><trkpt lat="51.808577" lon="-1.880416"><ele>156.83</ele><time>2011-01-19T12:16:41Z</time></trkpt><trkpt lat="51.808490" lon="-1.880577"><ele>157.31</ele><time>2011-01-19T12:16:55Z</time></trkpt><trkpt lat="51.808414" lon="-1.880710"><ele>158.75</ele><time>2011-01-19T12:17:08Z</time></trkpt><trkpt lat="51.808328" lon="-1.880817"><ele>158.27</ele><time>2011-01-19T12:17:21Z</time></trkpt><trkpt lat="51.808285" lon="-1.880939"><ele>158.75</ele><time>2011-01-19T12:17:35Z</time></trkpt><trkpt lat="51.808314" lon="-1.881026"><ele>165.48</ele><time>2011-01-19T12:17:52Z</time></trkpt><trkpt lat="51.808331" lon="-1.881046"><ele>165.96</ele><time>2011-01-19T12:18:04Z</time></trkpt><trkpt lat="51.808318" lon="-1.881037"><ele>165.96</ele><time>2011-01-19T12:18:21Z</time></trkpt><trkpt lat="51.808303" lon="-1.881030"><ele>165.96</ele><time>2011-01-19T12:18:23Z</time></trkpt><trkpt lat="51.808249" lon="-1.881030"><ele>162.60</ele><time>2011-01-19T12:18:30Z</time></trkpt><trkpt lat="51.808151" lon="-1.881138"><ele>162.12</ele><time>2011-01-19T12:18:41Z</time></trkpt><trkpt lat="51.808083" lon="-1.881251"><ele>162.12</ele><time>2011-01-19T12:18:50Z</time></trkpt><trkpt lat="51.808038" lon="-1.881307"><ele>163.08</ele><time>2011-01-19T12:18:55Z</time></trkpt><trkpt lat="51.807929" lon="-1.881429"><ele>165.48</ele><time>2011-01-19T12:19:07Z</time></trkpt><trkpt lat="51.807802" lon="-1.881480"><ele>165.96</ele><time>2011-01-19T12:19:19Z</time></trkpt><trkpt lat="51.807621" lon="-1.881518"><ele>165.48</ele><time>2011-01-19T12:19:34Z</time></trkpt><trkpt lat="51.807503" lon="-1.881553"><ele>162.60</ele><time>2011-01-19T12:19:43Z</time></trkpt><trkpt lat="51.807413" lon="-1.881546"><ele>163.56</ele><time>2011-01-19T12:19:51Z</time></trkpt><trkpt lat="51.807276" lon="-1.881524"><ele>165.96</ele><time>2011-01-19T12:20:06Z</time></trkpt><trkpt lat="51.807249" lon="-1.881556"><ele>166.45</ele><time>2011-01-19T12:20:28Z</time></trkpt><trkpt lat="51.807164" lon="-1.881493"><ele>166.93</ele><time>2011-01-19T12:20:42Z</time></trkpt><trkpt lat="51.807134" lon="-1.881508"><ele>167.41</ele><time>2011-01-19T12:21:01Z</time></trkpt><trkpt lat="51.807015" lon="-1.881563"><ele>167.89</ele><time>2011-01-19T12:21:16Z</time></trkpt><trkpt lat="51.806926" lon="-1.881609"><ele>168.37</ele><time>2011-01-19T12:21:31Z</time></trkpt><trkpt lat="51.806827" lon="-1.881664"><ele>168.37</ele><time>2011-01-19T12:21:47Z</time></trkpt><trkpt lat="51.806802" lon="-1.881687"><ele>167.89</ele><time>2011-01-19T12:21:59Z</time></trkpt><trkpt lat="51.806694" lon="-1.881702"><ele>168.85</ele><time>2011-01-19T12:22:17Z</time></trkpt><trkpt lat="51.806614" lon="-1.881665"><ele>168.85</ele><time>2011-01-19T12:22:28Z</time></trkpt><trkpt lat="51.806594" lon="-1.881643"><ele>168.37</ele><time>2011-01-19T12:22:45Z</time></trkpt><trkpt lat="51.806585" lon="-1.881649"><ele>168.37</ele><time>2011-01-19T12:23:03Z</time></trkpt><trkpt lat="51.806435" lon="-1.881767"><ele>169.81</ele><time>2011-01-19T12:23:19Z</time></trkpt><trkpt lat="51.806308" lon="-1.881866"><ele>171.25</ele><time>2011-01-19T12:23:34Z</time></trkpt><trkpt lat="51.806204" lon="-1.881934"><ele>172.21</ele><time>2011-01-19T12:23:47Z</time></trkpt><trkpt lat="51.806040" lon="-1.882017"><ele>173.66</ele><time>2011-01-19T12:24:02Z</time></trkpt><trkpt lat="51.805869" lon="-1.882052"><ele>175.10</ele><time>2011-01-19T12:24:19Z</time></trkpt><trkpt lat="51.805679" lon="-1.882049"><ele>176.06</ele><time>2011-01-19T12:24:37Z</time></trkpt><trkpt lat="51.805499" lon="-1.882061"><ele>178.46</ele><time>2011-01-19T12:24:53Z</time></trkpt><trkpt lat="51.805388" lon="-1.882061"><ele>181.35</ele><time>2011-01-19T12:25:04Z</time></trkpt><trkpt lat="51.805351" lon="-1.882029"><ele>184.23</ele><time>2011-01-19T12:25:19Z</time></trkpt><trkpt lat="51.805310" lon="-1.882052"><ele>185.67</ele><time>2011-01-19T12:25:36Z</time></trkpt><trkpt lat="51.805294" lon="-1.882132"><ele>186.15</ele><time>2011-01-19T12:26:07Z</time></trkpt><trkpt lat="51.805291" lon="-1.882109"><ele>185.67</ele><time>2011-01-19T12:26:37Z</time></trkpt><trkpt lat="51.805223" lon="-1.882074"><ele>182.31</ele><time>2011-01-19T12:26:44Z</time></trkpt><trkpt lat="51.805139" lon="-1.882007"><ele>182.31</ele><time>2011-01-19T12:26:50Z</time></trkpt><trkpt lat="51.805085" lon="-1.881981"><ele>181.35</ele><time>2011-01-19T12:26:54Z</time></trkpt><trkpt lat="51.804986" lon="-1.882106"><ele>178.94</ele><time>2011-01-19T12:27:07Z</time></trkpt><trkpt lat="51.804892" lon="-1.882176"><ele>176.06</ele><time>2011-01-19T12:27:23Z</time></trkpt><trkpt lat="51.804869" lon="-1.882175"><ele>175.58</ele><time>2011-01-19T12:27:25Z</time></trkpt><trkpt lat="51.804750" lon="-1.882221"><ele>177.98</ele><time>2011-01-19T12:27:36Z</time></trkpt><trkpt lat="51.804704" lon="-1.882252"><ele>179.90</ele><time>2011-01-19T12:27:41Z</time></trkpt><trkpt lat="51.804679" lon="-1.882269"><ele>180.87</ele><time>2011-01-19T12:27:43Z</time></trkpt><trkpt lat="51.804626" lon="-1.882268"><ele>181.83</ele><time>2011-01-19T12:27:47Z</time></trkpt><trkpt lat="51.804460" lon="-1.882323"><ele>184.23</ele><time>2011-01-19T12:28:00Z</time></trkpt><trkpt lat="51.804360" lon="-1.882342"><ele>183.75</ele><time>2011-01-19T12:28:11Z</time></trkpt><trkpt lat="51.804348" lon="-1.882345"><ele>183.75</ele><time>2011-01-19T12:28:12Z</time></trkpt><trkpt lat="51.804295" lon="-1.882320"><ele>183.75</ele><time>2011-01-19T12:28:17Z</time></trkpt><trkpt lat="51.804200" lon="-1.882315"><ele>183.27</ele><time>2011-01-19T12:28:26Z</time></trkpt><trkpt lat="51.804159" lon="-1.882317"><ele>182.79</ele><time>2011-01-19T12:28:30Z</time></trkpt><trkpt lat="51.804026" lon="-1.882431"><ele>177.50</ele><time>2011-01-19T12:28:43Z</time></trkpt><trkpt lat="51.803943" lon="-1.882409"><ele>177.02</ele><time>2011-01-19T12:28:56Z</time></trkpt><trkpt lat="51.803817" lon="-1.882456"><ele>173.17</ele><time>2011-01-19T12:29:08Z</time></trkpt><trkpt lat="51.803765" lon="-1.882447"><ele>171.73</ele><time>2011-01-19T12:29:13Z</time></trkpt><trkpt lat="51.803700" lon="-1.882492"><ele>171.73</ele><time>2011-01-19T12:29:21Z</time></trkpt><trkpt lat="51.803520" lon="-1.882502"><ele>168.85</ele><time>2011-01-19T12:29:36Z</time></trkpt><trkpt lat="51.803507" lon="-1.882507"><ele>168.85</ele><time>2011-01-19T12:29:37Z</time></trkpt><trkpt lat="51.803406" lon="-1.882459"><ele>167.89</ele><time>2011-01-19T12:29:50Z</time></trkpt><trkpt lat="51.803374" lon="-1.882467"><ele>169.33</ele><time>2011-01-19T12:30:07Z</time></trkpt><trkpt lat="51.803300" lon="-1.882664"><ele>172.21</ele><time>2011-01-19T12:30:19Z</time></trkpt><trkpt lat="51.803259" lon="-1.882809"><ele>173.17</ele><time>2011-01-19T12:30:27Z</time></trkpt><trkpt lat="51.803197" lon="-1.882932"><ele>172.69</ele><time>2011-01-19T12:30:37Z</time></trkpt><trkpt lat="51.803178" lon="-1.882928"><ele>171.25</ele><time>2011-01-19T12:30:40Z</time></trkpt><trkpt lat="51.803067" lon="-1.882946"><ele>163.08</ele><time>2011-01-19T12:30:55Z</time></trkpt><trkpt lat="51.803037" lon="-1.883000"><ele>162.60</ele><time>2011-01-19T12:30:59Z</time></trkpt><trkpt lat="51.802905" lon="-1.883088"><ele>162.60</ele><time>2011-01-19T12:31:14Z</time></trkpt><trkpt lat="51.802796" lon="-1.883268"><ele>159.24</ele><time>2011-01-19T12:31:32Z</time></trkpt><trkpt lat="51.802625" lon="-1.883366"><ele>154.91</ele><time>2011-01-19T12:31:53Z</time></trkpt><trkpt lat="51.802493" lon="-1.883437"><ele>151.54</ele><time>2011-01-19T12:32:09Z</time></trkpt><trkpt lat="51.802302" lon="-1.883550"><ele>148.66</ele><time>2011-01-19T12:32:28Z</time></trkpt><trkpt lat="51.802239" lon="-1.883609"><ele>148.18</ele><time>2011-01-19T12:32:35Z</time></trkpt><trkpt lat="51.802155" lon="-1.883731"><ele>145.78</ele><time>2011-01-19T12:32:47Z</time></trkpt><trkpt lat="51.802133" lon="-1.883757"><ele>145.30</ele><time>2011-01-19T12:32:52Z</time></trkpt><trkpt lat="51.801978" lon="-1.883872"><ele>143.37</ele><time>2011-01-19T12:33:09Z</time></trkpt><trkpt lat="51.801814" lon="-1.883942"><ele>142.41</ele><time>2011-01-19T12:33:26Z</time></trkpt><trkpt lat="51.801640" lon="-1.884049"><ele>141.45</ele><time>2011-01-19T12:33:45Z</time></trkpt><trkpt lat="51.801517" lon="-1.884148"><ele>138.57</ele><time>2011-01-19T12:34:00Z</time></trkpt><trkpt lat="51.801389" lon="-1.884213"><ele>135.68</ele><time>2011-01-19T12:34:13Z</time></trkpt><trkpt lat="51.801245" lon="-1.884255"><ele>136.16</ele><time>2011-01-19T12:34:26Z</time></trkpt><trkpt lat="51.801083" lon="-1.884343"><ele>133.76</ele><time>2011-01-19T12:34:42Z</time></trkpt><trkpt lat="51.801001" lon="-1.884376"><ele>133.28</ele><time>2011-01-19T12:34:52Z</time></trkpt><trkpt lat="51.800903" lon="-1.884492"><ele>132.32</ele><time>2011-01-19T12:35:05Z</time></trkpt><trkpt lat="51.800860" lon="-1.884543"><ele>130.88</ele><time>2011-01-19T12:35:19Z</time></trkpt><trkpt lat="51.800785" lon="-1.884674"><ele>128.47</ele><time>2011-01-19T12:35:35Z</time></trkpt><trkpt lat="51.800734" lon="-1.884757"><ele>126.55</ele><time>2011-01-19T12:35:47Z</time></trkpt><trkpt lat="51.800732" lon="-1.884860"><ele>125.11</ele><time>2011-01-19T12:35:58Z</time></trkpt><trkpt lat="51.800721" lon="-1.884899"><ele>124.63</ele><time>2011-01-19T12:36:02Z</time></trkpt><trkpt lat="51.800717" lon="-1.884972"><ele>123.67</ele><time>2011-01-19T12:36:11Z</time></trkpt><trkpt lat="51.800546" lon="-1.884889"><ele>124.63</ele><time>2011-01-19T12:36:26Z</time></trkpt><trkpt lat="51.800486" lon="-1.884868"><ele>124.15</ele><time>2011-01-19T12:36:39Z</time></trkpt><trkpt lat="51.800496" lon="-1.884904"><ele>123.19</ele><time>2011-01-19T12:37:01Z</time></trkpt><trkpt lat="51.800457" lon="-1.884880"><ele>123.19</ele><time>2011-01-19T12:37:17Z</time></trkpt><trkpt lat="51.800304" lon="-1.884812"><ele>124.15</ele><time>2011-01-19T12:37:32Z</time></trkpt><trkpt lat="51.800165" lon="-1.884739"><ele>124.15</ele><time>2011-01-19T12:37:47Z</time></trkpt><trkpt lat="51.800006" lon="-1.884783"><ele>126.55</ele><time>2011-01-19T12:38:04Z</time></trkpt><trkpt lat="51.799907" lon="-1.884845"><ele>126.07</ele><time>2011-01-19T12:38:13Z</time></trkpt><trkpt lat="51.799885" lon="-1.884851"><ele>125.11</ele><time>2011-01-19T12:38:15Z</time></trkpt><trkpt lat="51.799708" lon="-1.884989"><ele>121.26</ele><time>2011-01-19T12:38:33Z</time></trkpt><trkpt lat="51.799569" lon="-1.885096"><ele>120.78</ele><time>2011-01-19T12:38:47Z</time></trkpt><trkpt lat="51.799556" lon="-1.885126"><ele>120.78</ele><time>2011-01-19T12:38:49Z</time></trkpt><trkpt lat="51.799554" lon="-1.885163"><ele>120.78</ele><time>2011-01-19T12:38:51Z</time></trkpt><trkpt lat="51.799618" lon="-1.885310"><ele>118.86</ele><time>2011-01-19T12:39:00Z</time></trkpt><trkpt lat="51.799687" lon="-1.885390"><ele>118.86</ele><time>2011-01-19T12:39:07Z</time></trkpt><trkpt lat="51.799749" lon="-1.885377"><ele>119.34</ele><time>2011-01-19T12:39:14Z</time></trkpt></trkseg></trk></gpx>